Time;durP1;ratioP1;P1;durP2;ratioP2;P2;SDS_P1;SDS_P2;PMS_P1;PMS_P2;Temp;Humidity;BMP_temperature;BMP_pressure;BME280_temperature;BME280_humidity;BME280_pressure;Samples;Min_cycle;Max_cycle;Signal;HPM_P1;HPM_P2
2021/03/25 00:00:56;;;;;;;11.80;7.90;;;4.70;99.90;;;;;;4888551;29;20853;-96
2021/03/25 00:03:22;;;;;;;11.53;7.97;;;4.70;99.90;;;;;;4875974;29;20536;-95
2021/03/25 00:05:51;;;;;;;10.00;7.40;;;4.60;99.90;;;;;;4872720;29;20558;-96
2021/03/25 00:08:20;;;;;;;16.33;8.20;;;4.50;99.90;;;;;;4857149;29;21026;-94
2021/03/25 00:10:49;;;;;;;13.37;8.77;;;4.40;99.90;;;;;;4858471;29;20530;-96
2021/03/25 00:13:16;;;;;;;10.00;7.87;;;4.30;99.90;;;;;;4863666;29;20560;-95
2021/03/25 00:15:42;;;;;;;8.97;7.70;;;4.30;99.90;;;;;;4876753;29;20461;-92
2021/03/25 00:18:14;;;;;;;13.50;8.10;;;4.20;99.90;;;;;;4873930;29;20449;-95
2021/03/25 00:20:40;;;;;;;7.97;7.10;;;4.20;99.90;;;;;;4889888;29;20461;-95
2021/03/25 00:23:08;;;;;;;9.67;8.13;;;4.20;99.90;;;;;;4866643;29;20521;-95
2021/03/25 00:25:37;;;;;;;9.67;7.57;;;4.20;99.90;;;;;;4868074;29;20455;-93
2021/03/25 00:28:05;;;;;;;8.10;6.70;;;4.30;99.90;;;;;;4878789;29;20468;-95
2021/03/25 00:30:33;;;;;;;8.77;7.33;;;4.20;99.90;;;;;;4889641;29;20507;-95
2021/03/25 00:33:00;;;;;;;9.40;7.43;;;4.20;99.90;;;;;;4861499;29;20506;-95
2021/03/25 00:35:28;;;;;;;9.77;7.37;;;4.30;99.90;;;;;;4875286;29;20445;-95
2021/03/25 00:37:54;;;;;;;10.40;7.70;;;4.20;99.90;;;;;;4866014;29;20452;-95
2021/03/25 00:40:21;;;;;;;11.70;7.87;;;4.20;99.90;;;;;;4870783;29;20958;-94
2021/03/25 00:42:47;;;;;;;11.93;7.60;;;4.30;99.90;;;;;;4878775;29;20820;-94
2021/03/25 00:45:23;;;;;;;7.43;6.67;;;4.30;99.90;;;;;;4873935;29;20469;-95
2021/03/25 00:47:49;;;;;;;8.63;6.77;;;4.20;99.90;;;;;;4858819;29;20508;-94
2021/03/25 00:50:27;;;;;;;9.97;7.10;;;4.20;99.90;;;;;;4893497;29;20571;-94
2021/03/25 00:52:54;;;;;;;8.50;6.63;;;4.20;99.90;;;;;;4892919;29;21208;-94
2021/03/25 00:55:21;;;;;;;9.13;7.47;;;4.20;99.90;;;;;;4877197;29;20471;-95
2021/03/25 00:57:47;;;;;;;8.67;7.10;;;4.10;99.90;;;;;;4871965;29;20469;-93
2021/03/25 01:00:16;;;;;;;12.43;7.93;;;4.10;99.90;;;;;;4873976;29;20457;-94
2021/03/25 01:02:42;;;;;;;11.07;8.60;;;4.00;99.90;;;;;;4882146;29;20484;-95
2021/03/25 01:05:18;;;;;;;14.07;8.73;;;3.90;99.90;;;;;;4867180;29;20457;-94
2021/03/25 01:08:34;;;;;;;10.40;8.00;;;3.80;99.90;;;;;;4879304;29;20445;-95
2021/03/25 01:11:18;;;;;;;9.87;8.70;;;3.70;99.90;;;;;;4885319;29;20499;-95
2021/03/25 01:13:47;;;;;;;11.03;8.00;;;3.80;99.90;;;;;;4875827;29;20687;-95
2021/03/25 01:16:34;;;;;;;14.20;8.13;;;3.80;99.90;;;;;;4887721;29;20438;-93
2021/03/25 01:19:03;;;;;;;12.03;7.90;;;3.90;99.90;;;;;;4869317;29;20487;-92
2021/03/25 01:21:29;;;;;;;13.60;8.60;;;3.90;99.90;;;;;;4869290;29;21527;-94
2021/03/25 01:23:56;;;;;;;10.70;8.40;;;3.80;99.90;;;;;;4881585;29;20517;-95
2021/03/25 01:26:22;;;;;;;9.47;7.77;;;3.80;99.90;;;;;;4863910;29;20481;-96
2021/03/25 01:28:47;;;;;;;13.57;8.80;;;3.70;99.90;;;;;;4869104;29;21009;-95
2021/03/25 01:31:13;;;;;;;11.63;8.90;;;3.60;99.90;;;;;;4870458;29;20497;-94
2021/03/25 01:33:39;;;;;;;12.50;9.10;;;3.50;99.90;;;;;;4876520;29;20208;-95
2021/03/25 01:36:05;;;;;;;11.77;8.60;;;3.50;99.90;;;;;;4872982;29;20566;-95
2021/03/25 01:38:31;;;;;;;12.57;8.47;;;3.60;99.90;;;;;;4873196;29;20194;-94
2021/03/25 01:40:59;;;;;;;10.43;8.40;;;3.50;99.90;;;;;;4879752;29;20520;-95
2021/03/25 01:43:42;;;;;;;11.20;7.57;;;3.60;99.90;;;;;;4876734;29;20230;-94
2021/03/25 01:46:15;;;;;;;9.23;8.13;;;3.60;99.90;;;;;;4863195;29;20980;-92
2021/03/25 01:48:42;;;;;;;10.27;8.87;;;3.50;99.90;;;;;;4863488;29;20566;-92
2021/03/25 01:51:43;;;;;;;13.23;8.43;;;3.50;99.90;;;;;;4867645;29;20451;-92
2021/03/25 01:54:42;;;;;;;9.10;7.40;;;3.50;99.90;;;;;;4877080;29;20457;-93
2021/03/25 01:57:16;;;;;;;10.20;8.30;;;3.60;99.90;;;;;;4887339;29;20475;-95
2021/03/25 01:59:48;;;;;;;10.50;8.73;;;3.60;99.90;;;;;;4882584;29;20489;-95
2021/03/25 02:02:16;;;;;;;8.67;7.30;;;3.60;99.90;;;;;;4886344;29;20453;-94
2021/03/25 02:05:04;;;;;;;9.50;6.97;;;3.60;99.90;;;;;;4884295;29;20481;-95
2021/03/25 02:07:48;;;;;;;9.90;7.90;;;3.60;99.90;;;;;;4867574;29;20590;-95
2021/03/25 02:10:26;;;;;;;8.07;6.77;;;3.60;99.90;;;;;;4866077;29;20449;-94
2021/03/25 02:13:02;;;;;;;7.93;7.13;;;3.50;99.90;;;;;;4866028;29;20452;-94
2021/03/25 02:15:54;;;;;;;13.27;7.70;;;3.40;99.90;;;;;;4868121;29;20441;-93
2021/03/25 02:18:20;;;;;;;9.53;7.37;;;3.30;99.90;;;;;;4883425;29;20453;-94
2021/03/25 02:21:01;;;;;;;13.50;8.47;;;3.20;99.90;;;;;;4866458;29;20490;-94
2021/03/25 02:24:04;;;;;;;10.20;8.17;;;3.20;99.90;;;;;;4872179;29;20214;-94
2021/03/25 02:27:07;;;;;;;13.80;8.20;;;3.10;99.90;;;;;;4869720;29;20965;-95
2021/03/25 02:30:00;;;;;;;10.00;7.23;;;3.10;99.90;;;;;;4864990;29;20444;-94
2021/03/25 02:32:33;;;;;;;9.03;7.70;;;3.00;99.90;;;;;;4870271;29;20464;-94
2021/03/25 02:35:08;;;;;;;12.73;7.60;;;3.00;99.90;;;;;;4893532;29;20516;-94
2021/03/25 02:37:35;;;;;;;9.63;8.00;;;3.00;99.90;;;;;;4865882;29;20529;-94
2021/03/25 02:40:12;;;;;;;10.00;7.80;;;3.00;99.90;;;;;;4882170;29;20481;-95
2021/03/25 02:42:57;;;;;;;12.13;8.27;;;3.10;99.90;;;;;;4867574;29;20512;-94
2021/03/25 02:45:30;;;;;;;12.57;7.80;;;3.10;99.90;;;;;;4875533;29;20448;-95
2021/03/25 02:48:05;;;;;;;13.27;8.30;;;3.00;99.90;;;;;;4890340;29;20482;-95
2021/03/25 02:51:03;;;;;;;11.87;8.40;;;2.90;99.90;;;;;;4882444;29;20965;-96
2021/03/25 02:53:38;;;;;;;10.20;7.90;;;2.90;99.90;;;;;;4880402;29;20441;-96
2021/03/25 02:56:21;;;;;;;11.07;7.63;;;2.90;99.90;;;;;;4894605;29;20441;-96
2021/03/25 02:58:52;;;;;;;9.00;7.80;;;2.90;99.90;;;;;;4894659;29;20862;-95
2021/03/25 03:01:18;;;;;;;8.80;7.30;;;2.90;99.90;;;;;;4886184;29;20477;-95
2021/03/25 03:04:31;;;;;;;9.50;7.30;;;2.80;99.90;;;;;;4874848;29;20487;-95
2021/03/25 03:07:09;;;;;;;10.90;7.77;;;2.90;99.90;;;;;;4884669;29;20470;-95
2021/03/25 03:09:42;;;;;;;12.33;7.87;;;3.00;99.90;;;;;;4875431;29;20454;-94
2021/03/25 03:12:21;;;;;;;10.37;8.20;;;3.00;99.90;;;;;;4868465;29;20458;-94
2021/03/25 03:15:16;;;;;;;8.57;7.60;;;2.90;99.90;;;;;;4863866;29;20909;-93
2021/03/25 03:18:06;;;;;;;10.67;8.00;;;2.80;99.90;;;;;;4852509;29;20480;-95
2021/03/25 03:20:38;;;;;;;9.73;7.90;;;2.80;99.90;;;;;;4879762;29;20493;-94
2021/03/25 03:23:08;;;;;;;9.00;8.07;;;2.80;99.90;;;;;;4878309;29;21057;-95
2021/03/25 03:25:33;;;;;;;10.23;7.97;;;2.80;99.90;;;;;;4883700;29;20496;-95
2021/03/25 03:28:05;;;;;;;9.93;7.30;;;2.80;99.90;;;;;;4869998;29;21236;-94
2021/03/25 03:30:33;;;;;;;7.70;6.90;;;2.80;99.90;;;;;;4862652;29;20616;-93
2021/03/25 03:33:07;;;;;;;9.03;8.00;;;2.70;99.90;;;;;;4869936;29;20441;-93
2021/03/25 03:35:47;;;;;;;9.30;7.17;;;2.70;99.90;;;;;;4874326;29;20873;-95
2021/03/25 03:38:22;;;;;;;11.57;7.30;;;2.70;99.90;;;;;;4876875;29;20484;-94
2021/03/25 03:40:51;;;;;;;11.40;7.90;;;2.70;99.90;;;;;;4873096;29;20482;-95
2021/03/25 03:43:18;;;;;;;11.10;7.67;;;2.70;99.90;;;;;;4866004;29;20458;-93
2021/03/25 03:45:58;;;;;;;13.60;8.10;;;2.70;99.90;;;;;;4864701;29;20521;-92
2021/03/25 03:48:31;;;;;;;9.27;7.33;;;2.80;99.90;;;;;;4870019;29;20449;-92
2021/03/25 03:51:01;;;;;;;8.90;7.53;;;2.80;99.90;;;;;;4882545;29;21033;-92
2021/03/25 03:53:28;;;;;;;10.83;7.70;;;2.80;99.90;;;;;;4863086;29;20462;-94
2021/03/25 03:56:29;;;;;;;10.03;7.50;;;2.80;99.90;;;;;;4867084;29;20465;-93
2021/03/25 03:58:59;;;;;;;11.90;7.80;;;2.70;99.90;;;;;;4866215;29;20463;-92
2021/03/25 04:01:48;;;;;;;9.10;6.50;;;2.70;99.90;;;;;;4867254;29;20908;-95
2021/03/25 04:04:25;;;;;;;8.13;7.10;;;2.70;99.90;;;;;;4859653;29;20445;-93
2021/03/25 04:06:56;;;;;;;12.43;8.33;;;2.70;99.90;;;;;;4862773;29;20453;-94
2021/03/25 04:09:44;;;;;;;9.93;7.67;;;2.70;99.90;;;;;;4865318;29;20509;-94
2021/03/25 04:12:23;;;;;;;11.80;8.17;;;2.60;99.90;;;;;;4869173;29;20821;-93
2021/03/25 04:14:57;;;;;;;14.93;8.00;;;2.50;99.90;;;;;;4863929;29;20445;-93
2021/03/25 04:17:32;;;;;;;10.10;8.43;;;2.60;99.90;;;;;;4865883;29;20467;-92
2021/03/25 04:20:09;;;;;;;13.23;7.97;;;2.60;99.90;;;;;;4861205;29;20493;-95
2021/03/25 04:22:52;;;;;;;11.40;8.47;;;2.60;99.90;;;;;;4868634;29;20451;-95
2021/03/25 04:25:29;;;;;;;10.40;8.20;;;2.60;99.90;;;;;;4879117;29;20936;-93
2021/03/25 04:28:19;;;;;;;9.60;7.50;;;2.60;99.90;;;;;;4880011;29;20477;-94
2021/03/25 04:30:50;;;;;;;9.90;7.87;;;2.60;99.90;;;;;;4861243;29;20860;-94
2021/03/25 04:33:20;;;;;;;9.50;7.77;;;2.60;99.90;;;;;;4865533;29;20477;-94
2021/03/25 04:35:46;;;;;;;10.23;8.10;;;2.50;99.90;;;;;;4874054;29;20518;-95
2021/03/25 04:38:24;;;;;;;11.50;8.00;;;2.50;99.90;;;;;;4895577;29;20502;-95
2021/03/25 04:40:54;;;;;;;8.87;7.37;;;2.50;99.90;;;;;;4875066;29;20670;-96
2021/03/25 04:43:23;;;;;;;9.97;7.70;;;2.30;99.90;;;;;;4883046;29;20454;-96
2021/03/25 04:45:53;;;;;;;9.53;7.67;;;2.30;99.90;;;;;;4871477;29;20461;-95
2021/03/25 04:48:22;;;;;;;14.20;8.53;;;2.30;99.90;;;;;;4869943;29;20813;-96
2021/03/25 04:50:58;;;;;;;9.73;7.50;;;2.40;99.90;;;;;;4868815;29;20449;-94
2021/03/25 04:53:28;;;;;;;9.30;7.50;;;2.30;99.90;;;;;;4862069;29;20449;-95
2021/03/25 04:55:56;;;;;;;10.67;8.10;;;2.30;99.90;;;;;;4868339;29;20465;-94
2021/03/25 04:58:50;;;;;;;9.80;7.63;;;2.40;99.90;;;;;;4869079;29;20449;-95
2021/03/25 05:01:23;;;;;;;8.87;6.70;;;2.30;99.90;;;;;;4864388;29;20894;-94
2021/03/25 05:03:54;;;;;;;11.03;7.30;;;2.30;99.90;;;;;;4866690;29;20789;-94
2021/03/25 05:06:22;;;;;;;9.90;8.00;;;2.30;99.90;;;;;;4878201;29;20960;-94
2021/03/25 05:08:52;;;;;;;11.67;8.80;;;2.30;99.90;;;;;;4874219;29;20647;-94
2021/03/25 05:11:28;;;;;;;15.10;8.40;;;2.30;99.90;;;;;;4867170;29;20457;-96
2021/03/25 05:13:58;;;;;;;10.33;7.87;;;2.20;99.90;;;;;;4883951;29;20453;-96
2021/03/25 05:16:42;;;;;;;9.50;8.10;;;2.20;99.90;;;;;;4876220;29;21147;-88
2021/03/25 05:19:17;;;;;;;10.90;9.30;;;2.20;99.90;;;;;;4862186;29;20453;-88
2021/03/25 05:21:45;;;;;;;13.50;9.63;;;2.10;99.90;;;;;;4871609;29;20465;-88
2021/03/25 05:24:33;;;;;;;11.77;9.07;;;2.10;99.90;;;;;;4860120;29;20458;-88
2021/03/25 05:27:29;;;;;;;11.93;8.90;;;2.10;99.90;;;;;;4859466;29;20530;-87
2021/03/25 05:29:58;;;;;;;11.60;8.77;;;2.10;99.90;;;;;;4863411;29;20815;-87
2021/03/25 05:32:29;;;;;;;12.70;9.00;;;2.00;99.90;;;;;;4858062;29;20502;-87
2021/03/25 05:34:58;;;;;;;12.33;8.73;;;1.90;99.90;;;;;;4859835;29;20470;-88
2021/03/25 05:37:25;;;;;;;10.63;8.50;;;2.00;99.90;;;;;;4859245;29;20540;-88
2021/03/25 05:39:50;;;;;;;9.63;8.63;;;2.00;99.90;;;;;;4860599;29;20592;-87
2021/03/25 05:42:40;;;;;;;8.63;7.07;;;2.00;99.90;;;;;;4853006;29;20453;-86
2021/03/25 05:45:45;;;;;;;10.87;8.73;;;2.10;99.90;;;;;;4860331;29;20208;-87
2021/03/25 05:48:18;;;;;;;10.83;9.07;;;2.00;99.90;;;;;;4857061;29;20850;-88
2021/03/25 05:50:51;;;;;;;12.00;8.10;;;2.10;99.90;;;;;;4863264;29;20561;-87
2021/03/25 05:53:38;;;;;;;9.87;7.87;;;2.20;99.90;;;;;;4866924;29;20453;-87
2021/03/25 05:56:15;;;;;;;9.33;8.27;;;2.20;99.90;;;;;;4865611;29;20951;-87
2021/03/25 05:59:14;;;;;;;9.60;7.83;;;2.20;99.90;;;;;;4865607;29;20515;-88
2021/03/25 06:01:57;;;;;;;12.60;8.23;;;2.30;99.90;;;;;;4814326;29;20474;-87
2021/03/25 06:04:34;;;;;;;10.70;8.50;;;2.40;99.90;;;;;;4865825;29;20457;-87
2021/03/25 06:07:23;;;;;;;11.00;8.27;;;2.50;99.90;;;;;;4866564;29;20452;-88
2021/03/25 06:10:04;;;;;;;12.53;8.60;;;2.50;99.90;;;;;;4884283;29;20452;-87
2021/03/25 06:12:58;;;;;;;9.57;7.60;;;2.60;99.90;;;;;;4887760;29;20471;-86
2021/03/25 06:15:27;;;;;;;10.60;7.93;;;2.70;99.90;;;;;;4867829;29;20510;-86
2021/03/25 06:18:14;;;;;;;15.43;8.17;;;2.70;99.90;;;;;;4871549;29;20569;-86
2021/03/25 06:20:59;;;;;;;11.93;8.53;;;2.90;99.90;;;;;;4885289;29;20501;-88
2021/03/25 06:23:40;;;;;;;8.80;7.87;;;3.00;99.90;;;;;;4871558;29;20554;-86
2021/03/25 06:26:15;;;;;;;10.40;8.07;;;3.20;99.90;;;;;;4872230;29;20511;-86
2021/03/25 06:28:45;;;;;;;10.23;7.93;;;3.30;99.90;;;;;;4892443;29;20543;-86
2021/03/25 06:31:36;;;;;;;10.37;7.77;;;3.50;99.90;;;;;;4869702;29;20434;-86
2021/03/25 06:34:11;;;;;;;10.80;8.23;;;3.60;99.90;;;;;;4885877;29;20520;-87
2021/03/25 06:37:01;;;;;;;9.80;8.00;;;3.70;99.90;;;;;;4870222;29;20495;-86
2021/03/25 06:39:48;;;;;;;10.73;7.47;;;3.80;99.90;;;;;;4873443;29;20567;-87
2021/03/25 06:42:37;;;;;;;15.70;7.93;;;3.90;99.90;;;;;;4890064;29;20471;-87
2021/03/25 06:45:30;;;;;;;10.93;8.70;;;4.00;99.90;;;;;;4871197;29;20536;-88
2021/03/25 06:48:18;;;;;;;11.30;8.30;;;4.00;99.90;;;;;;4868600;29;20880;-86
2021/03/25 06:50:52;;;;;;;9.17;7.60;;;4.20;99.90;;;;;;4889045;29;20532;-87
2021/03/25 06:53:30;;;;;;;12.97;8.23;;;4.40;99.90;;;;;;4856458;29;20526;-88
2021/03/25 06:56:07;;;;;;;8.80;7.23;;;4.50;99.90;;;;;;4865001;29;20447;-87
2021/03/25 06:58:49;;;;;;;11.73;7.90;;;4.60;99.90;;;;;;4859970;29;20461;-87
2021/03/25 07:01:39;;;;;;;10.83;8.57;;;4.70;99.90;;;;;;4864062;29;20537;-87
2021/03/25 07:04:26;;;;;;;9.60;8.60;;;4.70;99.90;;;;;;4871473;29;20473;-87
2021/03/25 07:07:01;;;;;;;8.53;7.50;;;4.70;99.90;;;;;;4864723;29;20456;-87
2021/03/25 07:09:31;;;;;;;9.17;7.40;;;4.90;99.90;;;;;;4872435;29;20449;-87
2021/03/25 07:11:58;;;;;;;9.27;7.83;;;5.00;99.90;;;;;;4867404;29;20452;-85
2021/03/25 07:14:36;;;;;;;7.80;6.67;;;4.90;99.90;;;;;;4861415;29;20477;-86
2021/03/25 07:17:05;;;;;;;7.80;6.73;;;5.00;99.90;;;;;;4867835;29;20460;-85
2021/03/25 07:19:34;;;;;;;11.40;7.40;;;5.10;99.90;;;;;;4877370;29;20510;-85
2021/03/25 07:22:38;;;;;;;9.10;7.03;;;5.30;99.90;;;;;;4871786;29;20504;-84
2021/03/25 07:25:19;;;;;;;8.57;6.70;;;5.40;99.90;;;;;;4820983;29;20519;-84
2021/03/25 07:27:46;;;;;;;8.70;7.10;;;5.70;99.90;;;;;;4864772;29;20586;-82
2021/03/25 07:30:17;;;;;;;8.30;6.97;;;5.90;99.90;;;;;;4887165;29;20599;-86
2021/03/25 07:32:48;;;;;;;8.27;7.23;;;6.20;99.90;;;;;;4866469;29;20859;-85
2021/03/25 07:35:28;;;;;;;9.60;7.23;;;6.20;99.90;;;;;;4866465;29;21156;-85
2021/03/25 07:37:57;;;;;;;11.90;7.33;;;6.30;99.90;;;;;;4868908;29;20520;-82
2021/03/25 07:40:23;;;;;;;8.50;6.87;;;6.40;99.90;;;;;;4864745;29;20500;-84
2021/03/25 07:42:49;;;;;;;9.43;6.67;;;6.60;99.90;;;;;;4867850;29;20972;-84
2021/03/25 07:45:21;;;;;;;7.77;6.93;;;6.80;99.90;;;;;;4865652;29;20213;-84
2021/03/25 07:47:49;;;;;;;7.10;6.40;;;7.00;99.90;;;;;;4862021;29;20751;-84
2021/03/25 07:50:27;;;;;;;10.53;6.83;;;7.10;99.90;;;;;;4867373;29;20462;-85
2021/03/25 07:52:54;;;;;;;8.60;6.70;;;7.10;99.90;;;;;;4864581;29;20480;-84
2021/03/25 07:55:19;;;;;;;7.73;6.73;;;7.30;99.90;;;;;;4871434;29;20462;-85
2021/03/25 07:57:48;;;;;;;8.63;6.97;;;7.60;99.90;;;;;;4869897;29;23647;-85
2021/03/25 08:00:31;;;;;;;8.60;7.70;;;7.60;99.90;;;;;;4850223;29;20238;-87
2021/03/25 08:03:13;;;;;;;7.20;5.70;;;7.70;99.90;;;;;;4874196;29;20509;-85
2021/03/25 08:05:40;;;;;;;10.43;6.97;;;7.90;99.90;;;;;;4861322;29;20460;-85
2021/03/25 08:08:38;;;;;;;9.10;6.50;;;8.10;99.90;;;;;;4854876;29;20521;-85
2021/03/25 08:11:21;;;;;;;10.53;7.50;;;8.30;99.90;;;;;;4859897;29;22169;-84
2021/03/25 08:14:03;;;;;;;8.30;6.20;;;8.70;99.90;;;;;;4880594;29;20793;-85
2021/03/25 08:16:31;;;;;;;6.33;5.73;;;8.70;99.90;;;;;;4869628;29;20577;-86
2021/03/25 08:19:28;;;;;;;6.67;6.00;;;8.90;99.90;;;;;;4858672;29;21137;-87
2021/03/25 08:21:53;;;;;;;10.00;7.10;;;9.20;99.50;;;;;;4868399;29;21723;-86
2021/03/25 08:24:25;;;;;;;5.90;5.40;;;9.30;99.30;;;;;;4864033;29;20979;-86
2021/03/25 08:27:28;;;;;;;8.30;6.93;;;9.60;98.50;;;;;;4859084;29;20211;-87
2021/03/25 08:30:28;;;;;;;5.83;5.23;;;9.90;98.00;;;;;;4860864;29;21500;-88
2021/03/25 08:33:29;;;;;;;7.90;6.10;;;10.20;96.30;;;;;;4864998;29;20521;-87
2021/03/25 08:36:12;;;;;;;6.43;5.80;;;10.20;95.70;;;;;;4855466;29;20631;-84
2021/03/25 08:39:27;;;;;;;6.40;5.27;;;10.20;96.40;;;;;;4869632;29;20581;-90
2021/03/25 08:42:18;;;;;;;7.50;6.10;;;10.30;95.60;;;;;;4855578;29;20493;-90
2021/03/25 08:44:53;;;;;;;6.03;5.43;;;10.20;95.20;;;;;;4874312;29;20448;-88
2021/03/25 08:47:54;;;;;;;6.60;5.77;;;10.30;96.00;;;;;;4865697;29;20823;-91
2021/03/25 08:50:31;;;;;;;7.33;6.47;;;10.50;95.70;;;;;;4865243;29;20464;-88
2021/03/25 08:53:08;;;;;;;7.23;6.50;;;10.80;94.90;;;;;;4851459;29;20466;-88
2021/03/25 08:55:37;;;;;;;10.13;6.73;;;10.80;95.20;;;;;;4856123;29;20465;-88
2021/03/25 08:58:26;;;;;;;7.33;6.33;;;11.00;94.60;;;;;;4862469;29;21007;-88
2021/03/25 09:01:00;;;;;;;7.60;6.80;;;11.20;94.20;;;;;;4859027;29;20490;-88
2021/03/25 09:03:40;;;;;;;8.27;6.57;;;11.40;93.60;;;;;;4855199;29;20548;-87
2021/03/25 09:06:13;;;;;;;8.77;6.87;;;11.60;93.10;;;;;;4873793;29;20548;-88
2021/03/25 09:08:48;;;;;;;7.37;6.67;;;11.80;92.60;;;;;;4877985;29;22067;-89
2021/03/25 09:11:16;;;;;;;8.40;6.23;;;11.70;92.10;;;;;;4866044;29;20515;-88
2021/03/25 09:13:54;;;;;;;7.33;6.20;;;11.90;91.60;;;;;;4861156;29;20453;-90
2021/03/25 09:16:27;;;;;;;6.63;6.03;;;12.20;91.40;;;;;;4858355;29;20504;-88
2021/03/25 09:18:54;;;;;;;9.23;6.17;;;12.50;91.10;;;;;;4867042;29;20550;-87
2021/03/25 09:21:31;;;;;;;6.20;5.57;;;13.00;89.80;;;;;;4863325;29;20491;-87
2021/03/25 09:24:00;;;;;;;13.23;6.20;;;13.20;87.70;;;;;;4866473;29;20845;-87
2021/03/25 09:26:25;;;;;;;8.40;6.73;;;13.20;83.50;;;;;;4861806;29;20802;-88
2021/03/25 09:29:01;;;;;;;7.07;5.90;;;13.20;82.20;;;;;;4866717;29;20444;-87
2021/03/25 09:31:37;;;;;;;6.97;5.50;;;13.40;80.80;;;;;;4864472;29;20961;-90
2021/03/25 09:34:12;;;;;;;9.27;6.80;;;13.70;80.30;;;;;;4860958;29;20464;-87
2021/03/25 09:36:43;;;;;;;8.93;6.07;;;14.00;78.40;;;;;;4880776;29;20872;-87
2021/03/25 09:39:18;;;;;;;6.67;6.03;;;13.90;73.90;;;;;;4879538;29;20444;-88
2021/03/25 09:41:44;;;;;;;6.37;5.63;;;14.10;75.00;;;;;;4863079;29;20468;-89
2021/03/25 09:44:20;;;;;;;5.93;5.40;;;14.20;71.90;;;;;;4859860;29;20453;-89
2021/03/25 09:46:54;;;;;;;8.33;6.13;;;14.20;72.90;;;;;;4874391;29;20555;-88
2021/03/25 09:49:31;;;;;;;6.40;5.60;;;14.40;71.60;;;;;;4867130;29;20448;-90
2021/03/25 09:52:22;;;;;;;6.20;5.60;;;14.50;69.90;;;;;;4862586;29;20543;-89
2021/03/25 09:54:57;;;;;;;7.20;5.43;;;14.70;69.90;;;;;;4867471;29;20570;-88
2021/03/25 09:57:31;;;;;;;7.60;5.67;;;14.70;69.70;;;;;;4861304;29;20539;-89
2021/03/25 09:59:59;;;;;;;6.00;5.40;;;14.90;68.00;;;;;;4880779;29;20896;-89
2021/03/25 10:02:40;;;;;;;7.67;5.60;;;15.20;68.80;;;;;;4863889;29;20456;-90
2021/03/25 10:05:36;;;;;;;8.50;6.07;;;15.30;67.50;;;;;;4863292;29;20466;-90
2021/03/25 10:08:09;;;;;;;6.37;5.77;;;15.70;68.10;;;;;;4860816;29;20456;-89
2021/03/25 10:11:00;;;;;;;7.87;6.00;;;16.40;66.20;;;;;;4870548;29;20456;-90
2021/03/25 10:13:43;;;;;;;6.53;5.87;;;16.50;61.00;;;;;;4862702;29;20866;-89
2021/03/25 10:16:34;;;;;;;5.57;5.03;;;16.40;60.00;;;;;;4861262;29;20840;-88
2021/03/25 10:19:05;;;;;;;7.80;6.17;;;16.60;59.90;;;;;;4859116;29;20550;-89
2021/03/25 10:21:55;;;;;;;6.30;5.67;;;16.50;59.90;;;;;;4861245;29;21384;-90
2021/03/25 10:24:30;;;;;;;6.97;6.20;;;16.20;64.10;;;;;;4854410;29;20466;-89
2021/03/25 10:27:13;;;;;;;12.93;8.50;;;16.50;60.30;;;;;;4861028;29;20456;-92
2021/03/25 10:29:38;;;;;;;9.53;5.90;;;16.60;69.70;;;;;;4879462;29;20939;-89
2021/03/25 10:32:12;;;;;;;7.33;6.60;;;17.10;62.30;;;;;;4861694;29;20456;-90
2021/03/25 10:34:41;;;;;;;6.67;5.87;;;17.70;65.30;;;;;;4857844;29;20212;-90
2021/03/25 10:37:24;;;;;;;8.43;6.60;;;18.00;63.00;;;;;;4857768;29;20454;-89
2021/03/25 10:39:57;;;;;;;6.63;6.00;;;18.10;65.40;;;;;;4880314;29;20489;-89
2021/03/25 10:42:37;;;;;;;7.80;6.27;;;18.00;61.70;;;;;;4856769;29;20467;-89
2021/03/25 10:45:21;;;;;;;6.70;6.00;;;18.30;61.90;;;;;;4854082;29;20457;-89
2021/03/25 10:48:14;;;;;;;8.47;6.30;;;18.60;57.30;;;;;;4858484;29;20561;-90
2021/03/25 10:50:48;;;;;;;8.10;6.20;;;19.10;55.50;;;;;;4857509;29;20460;-92
2021/03/25 10:53:18;;;;;;;6.10;4.90;;;19.20;54.40;;;;;;4860113;29;20860;-89
2021/03/25 10:55:47;;;;;;;5.60;5.00;;;19.20;50.80;;;;;;4862166;29;20825;-89
2021/03/25 10:58:31;;;;;;;6.17;4.67;;;19.50;54.30;;;;;;4883884;29;20515;-89
2021/03/25 11:01:03;;;;;;;7.40;5.00;;;19.80;48.90;;;;;;4857764;29;20501;-89
2021/03/25 11:03:37;;;;;;;7.50;5.50;;;19.40;48.80;;;;;;4863054;29;20454;-88
2021/03/25 11:06:05;;;;;;;6.90;4.40;;;18.40;49.00;;;;;;4860952;29;20477;-88
2021/03/25 11:08:59;;;;;;;5.53;4.97;;;18.60;48.30;;;;;;4859913;29;20638;-89
2021/03/25 11:11:25;;;;;;;9.73;5.20;;;18.80;46.70;;;;;;4890419;29;20935;-88
2021/03/25 11:14:02;;;;;;;6.53;4.73;;;19.30;50.60;;;;;;4869588;29;20473;-90
2021/03/25 11:16:29;;;;;;;6.30;4.40;;;19.50;48.40;;;;;;4857955;29;21032;-90
2021/03/25 11:19:11;;;;;;;6.20;4.53;;;19.70;47.60;;;;;;4867415;29;20735;-90
2021/03/25 11:21:42;;;;;;;5.17;4.50;;;19.60;47.10;;;;;;4863175;29;20484;-87
2021/03/25 11:24:22;;;;;;;9.97;5.27;;;19.60;47.00;;;;;;4858751;29;20460;-89
2021/03/25 11:26:53;;;;;;;6.17;4.47;;;20.10;49.00;;;;;;4859097;29;20526;-89
2021/03/25 11:29:20;;;;;;;8.50;5.30;;;20.90;48.30;;;;;;4862883;29;20848;-89
2021/03/25 11:31:45;;;;;;;6.00;4.63;;;21.00;45.60;;;;;;4867218;29;20816;-89
2021/03/25 11:34:25;;;;;;;5.30;4.20;;;20.60;43.00;;;;;;4863346;29;20449;-89
2021/03/25 11:36:51;;;;;;;6.13;4.70;;;19.80;46.20;;;;;;4864402;29;20193;-90
2021/03/25 11:39:31;;;;;;;5.40;4.70;;;19.70;45.80;;;;;;4861239;29;20452;-89
2021/03/25 11:42:03;;;;;;;8.90;5.90;;;20.20;47.20;;;;;;4867446;29;21167;-89
2021/03/25 11:44:47;;;;;;;8.00;5.40;;;20.70;47.20;;;;;;4858936;29;20465;-89
2021/03/25 11:47:43;;;;;;;8.13;6.47;;;20.80;47.40;;;;;;4867049;29;20495;-88
2021/03/25 11:50:30;;;;;;;6.80;5.60;;;20.00;46.70;;;;;;4859343;29;20441;-89
2021/03/25 11:53:00;;;;;;;7.07;5.20;;;19.50;47.20;;;;;;4847984;29;20540;-88
2021/03/25 11:55:30;;;;;;;7.33;5.60;;;19.50;48.50;;;;;;4877125;29;20538;-88
2021/03/25 11:58:04;;;;;;;7.03;5.70;;;19.40;48.70;;;;;;4861514;29;20505;-88
2021/03/25 12:00:29;;;;;;;11.03;8.20;;;19.60;48.00;;;;;;4866589;29;20629;-88
2021/03/25 12:02:56;;;;;;;8.50;6.03;;;19.90;47.60;;;;;;4866834;29;20548;-88
2021/03/25 12:05:50;;;;;;;5.23;4.73;;;19.80;47.70;;;;;;4860350;29;20209;-90
2021/03/25 12:08:34;;;;;;;7.17;4.90;;;19.70;47.70;;;;;;4879080;29;20477;-88
2021/03/25 12:11:09;;;;;;;7.80;6.17;;;19.60;49.30;;;;;;4872978;29;20490;-90
2021/03/25 12:13:36;;;;;;;11.40;10.03;;;19.60;48.30;;;;;;4875454;29;20447;-90
2021/03/25 12:16:02;;;;;;;6.50;5.43;;;19.80;47.30;;;;;;4862002;29;20460;-89
2021/03/25 12:18:32;;;;;;;8.20;5.60;;;19.80;47.20;;;;;;4866487;29;20513;-90
2021/03/25 12:21:03;;;;;;;7.27;5.70;;;19.60;47.80;;;;;;4863564;29;20232;-88
2021/03/25 12:23:31;;;;;;;7.03;5.83;;;19.60;46.90;;;;;;4863314;29;20472;-88
2021/03/25 12:26:00;;;;;;;8.60;4.80;;;20.20;48.20;;;;;;4863229;29;20455;-89
2021/03/25 12:28:27;;;;;;;7.00;4.80;;;21.20;46.90;;;;;;4867045;29;20833;-91
2021/03/25 12:30:56;;;;;;;8.70;5.60;;;22.10;43.70;;;;;;4865967;29;20564;-91
2021/03/25 12:33:25;;;;;;;5.60;5.10;;;22.20;42.30;;;;;;4869461;29;20473;-91
2021/03/25 12:35:52;;;;;;;7.73;5.37;;;21.20;42.10;;;;;;4864622;29;20469;-91
2021/03/25 12:38:19;;;;;;;8.50;5.03;;;20.30;42.60;;;;;;4867339;29;20831;-90
2021/03/25 12:40:45;;;;;;;10.07;5.50;;;20.30;44.20;;;;;;4855525;29;20476;-91
2021/03/25 12:43:15;;;;;;;6.70;4.93;;;20.90;44.90;;;;;;4866739;29;20451;-92
2021/03/25 12:45:43;;;;;;;5.43;4.90;;;21.20;42.30;;;;;;4857657;29;20493;-92
2021/03/25 12:48:09;;;;;;;6.63;4.83;;;20.50;43.20;;;;;;4866220;29;20465;-92
2021/03/25 12:50:36;;;;;;;6.90;4.90;;;20.10;44.20;;;;;;4863880;29;20503;-92
2021/03/25 12:53:04;;;;;;;5.30;4.27;;;20.20;45.50;;;;;;4859192;29;21062;-89
2021/03/25 12:55:30;;;;;;;5.03;4.53;;;20.20;46.00;;;;;;4859972;29;20715;-90
2021/03/25 12:57:56;;;;;;;4.87;4.37;;;20.10;46.20;;;;;;4857851;29;20458;-88
2021/03/25 13:00:25;;;;;;;7.53;4.70;;;20.20;46.80;;;;;;4856191;29;20533;-89
2021/03/25 13:02:50;;;;;;;5.97;4.97;;;20.20;46.10;;;;;;4851536;29;21031;-89
2021/03/25 13:05:16;;;;;;;5.20;4.37;;;20.20;46.10;;;;;;4857147;29;20487;-90
2021/03/25 13:07:42;;;;;;;5.10;4.10;;;20.20;45.20;;;;;;4861821;29;20213;-90
2021/03/25 13:10:10;;;;;;;6.83;4.60;;;20.00;46.40;;;;;;4861469;29;20505;-89
2021/03/25 13:12:35;;;;;;;5.90;4.37;;;19.60;46.30;;;;;;4862483;29;20959;-90
2021/03/25 13:15:01;;;;;;;6.23;4.87;;;19.10;45.80;;;;;;4863828;29;20453;-90
2021/03/25 13:17:27;;;;;;;8.43;4.80;;;19.00;46.60;;;;;;4864143;29;20193;-89
2021/03/25 13:19:53;;;;;;;6.77;5.70;;;18.80;47.20;;;;;;4861600;29;20197;-90
2021/03/25 13:22:19;;;;;;;6.30;5.70;;;18.70;48.50;;;;;;4864033;29;20484;-90
2021/03/25 13:24:47;;;;;;;7.20;5.93;;;18.70;48.60;;;;;;4854679;29;20240;-90
2021/03/25 13:27:13;;;;;;;6.50;5.57;;;18.50;48.70;;;;;;4856767;29;20224;-90
2021/03/25 13:29:39;;;;;;;7.00;5.30;;;18.40;50.10;;;;;;4857312;29;20476;-90
2021/03/25 13:32:05;;;;;;;6.70;5.60;;;18.20;49.40;;;;;;4864384;29;20204;-89
2021/03/25 13:34:30;;;;;;;10.50;6.50;;;18.10;48.00;;;;;;4861697;29;20193;-90